createdAt,value
2023-04-08T00:03:31.242Z,13.30
2023-04-08T00:08:33.563Z,12.23
2023-04-08T00:13:35.687Z,12.88
2023-04-08T00:18:39.260Z,12.45
2023-04-08T00:23:41.376Z,13.82
2023-04-08T00:28:43.423Z,12.98
2023-04-08T00:33:46.919Z,13.27
2023-04-08T00:38:49.185Z,12.23
2023-04-08T00:43:52.693Z,12.20
2023-04-08T00:48:56.488Z,10.05
2023-04-08T00:53:58.633Z,9.48
2023-04-08T00:59:01.403Z,11.05
2023-04-08T01:04:12.305Z,9.52
2023-04-08T01:09:21.484Z,9.32
2023-04-08T01:14:28.247Z,9.27
2023-04-08T01:19:37.824Z,8.40
2023-04-08T01:24:43.131Z,7.88
2023-04-08T01:29:49.211Z,9.27
2023-04-08T01:34:52.699Z,9.10
2023-04-08T01:39:56.713Z,9.48
2023-04-08T01:45:02.323Z,9.43
2023-04-08T01:50:06.692Z,8.85
2023-04-08T01:55:09.282Z,10.05
2023-04-08T02:00:17.034Z,9.05
2023-04-08T02:05:19.373Z,11.35
2023-04-08T02:10:21.674Z,10.30
2023-04-08T02:15:29.012Z,10.43
2023-04-08T02:20:37.776Z,10.80
2023-04-08T02:25:43.294Z,11.77
2023-04-08T02:30:50.468Z,10.80
2023-04-08T02:35:53.190Z,10.00
2023-04-08T02:40:55.474Z,10.18
2023-04-08T02:45:59.973Z,9.77
2023-04-08T02:51:02.247Z,10.40
2023-04-08T02:56:04.786Z,8.85
2023-04-08T03:01:09.237Z,9.77
2023-04-08T03:06:11.295Z,9.00
2023-04-08T03:11:13.407Z,7.85
2023-04-08T03:16:16.890Z,8.73
2023-04-08T03:21:19.281Z,8.02
2023-04-08T03:26:21.461Z,9.40
2023-04-08T03:31:25.667Z,9.25
2023-04-08T03:36:27.892Z,8.60
2023-04-08T03:41:30.252Z,9.80
2023-04-08T03:46:33.871Z,7.63
2023-04-08T03:51:36.023Z,7.97
2023-04-08T03:56:38.297Z,8.20
2023-04-08T04:01:42.051Z,8.43
2023-04-08T04:06:44.425Z,7.75
2023-04-08T04:11:46.584Z,7.43
2023-04-08T04:16:50.042Z,7.93
2023-04-08T04:21:52.107Z,8.38
2023-04-08T04:26:54.268Z,7.65
2023-04-08T04:31:57.921Z,7.70
2023-04-08T04:37:00.104Z,7.75
2023-04-08T04:42:02.185Z,7.20
2023-04-08T04:47:05.796Z,7.63
2023-04-08T04:52:07.836Z,7.65
2023-04-08T04:57:10.091Z,8.23
2023-04-08T05:02:13.699Z,7.25
2023-04-08T05:07:16.178Z,7.63
2023-04-08T05:12:18.355Z,6.10
2023-04-08T05:17:22.181Z,7.43
2023-04-08T05:22:24.390Z,6.88
2023-04-08T05:27:26.542Z,7.85
2023-04-08T05:32:30.205Z,5.97
2023-04-08T05:37:32.406Z,8.63
2023-04-08T05:42:34.567Z,9.02
2023-04-08T05:47:38.154Z,9.88
2023-04-08T05:52:43.272Z,7.32
2023-04-08T05:57:45.317Z,8.60
2023-04-08T06:02:48.992Z,8.85
2023-04-08T06:07:51.916Z,7.82
2023-04-08T06:12:53.965Z,7.88
2023-04-08T06:17:57.478Z,7.63
2023-04-08T06:23:01.249Z,7.35
2023-04-08T06:28:03.316Z,7.80
2023-04-08T06:33:06.857Z,7.53
2023-04-08T06:38:08.957Z,8.40
2023-04-08T06:43:11.062Z,9.48
2023-04-08T06:48:14.572Z,9.70
2023-04-08T06:53:16.672Z,9.32
2023-04-08T06:58:18.864Z,10.57
2023-04-08T07:03:23.880Z,8.35
2023-04-08T07:08:26.447Z,11.15
2023-04-08T07:13:28.515Z,10.77
2023-04-08T07:18:32.738Z,10.10
2023-04-08T07:23:35.462Z,9.70
2023-04-08T07:28:37.608Z,10.88
2023-04-08T07:33:41.123Z,12.77
2023-04-08T07:38:43.259Z,12.15
2023-04-08T07:43:45.415Z,11.27
2023-04-08T07:48:49.164Z,12.68
2023-04-08T07:53:51.659Z,13.90
2023-04-08T07:58:54.004Z,11.25
2023-04-08T08:03:58.108Z,12.00
2023-04-08T08:09:01.239Z,10.77
2023-04-08T08:14:03.393Z,10.13
2023-04-08T08:19:06.990Z,11.02
2023-04-08T08:24:09.090Z,11.93
2023-04-08T08:29:14.050Z,14.57
2023-04-08T08:34:17.642Z,12.00
2023-04-08T08:39:19.888Z,10.27
2023-04-08T08:44:27.056Z,10.45
2023-04-08T08:49:30.599Z,10.00
2023-04-08T08:54:32.814Z,10.10
2023-04-08T08:59:35.011Z,9.00
2023-04-08T09:04:39.075Z,10.23
2023-04-08T09:09:49.126Z,10.82
2023-04-08T09:14:51.948Z,11.98
2023-04-08T09:20:10.940Z,13.13
2023-04-08T09:25:24.167Z,10.43
2023-04-08T09:30:29.262Z,13.20
2023-04-08T09:35:32.783Z,14.15
2023-04-08T09:40:36.754Z,14.38
2023-04-08T09:45:41.894Z,13.30
2023-04-08T09:50:50.333Z,10.68
2023-04-08T09:55:57.153Z,11.40
2023-04-08T10:01:00.844Z,10.35
2023-04-08T10:06:08.545Z,11.00
2023-04-08T10:11:11.509Z,17.50
2023-04-08T10:16:24.477Z,21.58
2023-04-08T10:21:38.760Z,13.07
2023-04-08T10:26:42.490Z,16.75
2023-04-08T10:31:45.257Z,12.95
2023-04-08T10:36:50.236Z,10.88
2023-04-08T10:41:52.368Z,13.05
2023-04-08T10:46:56.321Z,15.32
2023-04-08T10:51:59.924Z,9.73
2023-04-08T10:57:02.154Z,9.35
2023-04-08T11:02:04.437Z,11.82
2023-04-08T11:07:08.155Z,12.50
2023-04-08T11:12:11.101Z,13.68
2023-04-08T11:17:15.906Z,10.52
2023-04-08T11:22:20.650Z,11.93
2023-04-08T11:27:23.532Z,9.57
2023-04-08T11:32:28.085Z,46.17
2023-04-08T11:37:39.114Z,22.38
2023-04-08T11:42:41.803Z,17.33
2023-04-08T11:47:44.519Z,85.03
2023-04-08T11:52:49.577Z,56.83
2023-04-08T11:57:52.015Z,17.25
2023-04-08T12:02:56.208Z,15.63
2023-04-08T12:08:00.602Z,14.63
2023-04-08T12:13:16.996Z,15.43
2023-04-08T12:18:20.514Z,16.13
2023-04-08T12:23:24.312Z,32.25
2023-04-08T12:28:31.867Z,15.77
2023-04-08T12:33:34.237Z,17.10
2023-04-08T12:38:43.082Z,20.77
2023-04-08T12:43:47.450Z,33.42
2023-04-08T12:49:03.325Z,79.20
2023-04-08T12:54:09.694Z,22.65
2023-04-08T12:59:11.984Z,17.00
2023-04-08T13:04:16.312Z,22.08
2023-04-08T13:09:20.173Z,58.42
2023-04-08T13:14:23.462Z,67.63
2023-04-08T13:19:25.549Z,27.23
2023-04-08T13:24:29.174Z,17.98
2023-04-08T13:29:31.336Z,20.25
2023-04-08T13:34:33.579Z,31.52
2023-04-08T13:39:37.560Z,16.58
2023-04-08T13:44:39.723Z,22.83
2023-04-08T13:49:44.275Z,18.48
2023-04-08T13:54:49.627Z,27.35
2023-04-08T13:59:53.713Z,17.50
2023-04-08T14:04:55.954Z,16.30
2023-04-08T14:09:59.553Z,17.98
2023-04-08T14:15:01.696Z,18.42
2023-04-08T14:20:04.516Z,19.17
2023-04-08T14:25:09.089Z,17.40
2023-04-08T14:30:11.816Z,73.50
2023-04-08T14:35:14.095Z,21.63
2023-04-08T14:40:17.827Z,23.40
2023-04-08T14:45:20.219Z,20.73
2023-04-08T14:50:22.642Z,23.38
2023-04-08T14:55:30.627Z,28.33
2023-04-08T15:00:33.177Z,21.65
2023-04-08T15:05:36.782Z,33.42
2023-04-08T15:10:40.952Z,19.52
2023-04-08T15:15:43.520Z,25.02
2023-04-08T15:20:45.676Z,25.77
2023-04-08T15:25:49.207Z,25.65
2023-04-08T15:30:51.421Z,20.40
2023-04-08T15:35:53.635Z,26.52
2023-04-08T15:40:57.250Z,24.40
2023-04-08T15:46:01.221Z,20.42
2023-04-08T15:51:07.171Z,23.88
2023-04-08T15:56:14.840Z,22.92
2023-04-08T16:01:17.184Z,25.52
2023-04-08T16:06:19.433Z,24.83
2023-04-08T16:11:23.137Z,24.02
2023-04-08T16:16:25.417Z,19.05
2023-04-08T16:21:28.151Z,25.35
2023-04-08T16:26:32.069Z,32.88
2023-04-08T16:31:36.377Z,28.73
2023-04-08T16:36:39.712Z,31.33
2023-04-08T16:41:43.538Z,21.60
2023-04-08T16:46:45.724Z,41.25
2023-04-08T16:51:47.976Z,26.50
2023-04-08T16:56:51.522Z,24.52
2023-04-08T17:01:53.992Z,22.10
2023-04-08T17:06:56.283Z,23.65
2023-04-08T17:12:00.145Z,45.90
2023-04-08T17:17:03.291Z,84.28
2023-04-08T17:22:06.147Z,37.55
2023-04-08T17:27:09.925Z,27.73
2023-04-08T17:32:12.131Z,36.88
2023-04-08T17:37:14.259Z,28.17
2023-04-08T17:42:17.992Z,26.10
2023-04-08T17:47:20.189Z,25.52
2023-04-08T17:52:22.380Z,32.10
2023-04-08T17:57:25.901Z,36.63
2023-04-08T18:02:28.235Z,42.92
2023-04-08T18:07:30.635Z,45.78
2023-04-08T18:12:34.287Z,36.55
2023-04-08T18:17:36.560Z,47.00
2023-04-08T18:22:38.691Z,42.80
2023-04-08T18:27:45.858Z,67.68
2023-04-08T18:32:48.278Z,83.75
2023-04-08T18:37:50.516Z,72.03
2023-04-08T18:42:54.532Z,48.38
2023-04-08T18:47:56.833Z,53.80
2023-04-08T18:52:58.988Z,48.40
2023-04-08T18:58:02.710Z,52.60
2023-04-08T19:03:07.491Z,49.13
2023-04-08T19:08:13.647Z,82.82
2023-04-08T19:13:19.034Z,83.78
2023-04-08T19:18:21.262Z,47.45
2023-04-08T19:23:23.866Z,52.17
2023-04-08T19:28:29.073Z,56.63
2023-04-08T19:33:31.218Z,61.40
2023-04-08T19:38:33.344Z,50.90
2023-04-08T19:43:36.883Z,32.97
2023-04-08T19:48:38.999Z,36.45
2023-04-08T19:53:41.140Z,45.75
2023-04-08T19:58:44.669Z,65.00
2023-04-08T20:03:47.103Z,54.80
2023-04-08T20:08:51.458Z,35.75
2023-04-08T20:13:55.081Z,48.50
2023-04-08T20:18:57.352Z,35.08
2023-04-08T20:23:59.444Z,41.88
2023-04-08T20:29:02.909Z,39.17
2023-04-08T20:34:05.087Z,33.58
2023-04-08T20:39:10.328Z,38.90
2023-04-08T20:44:14.023Z,43.67
2023-04-08T20:49:16.434Z,49.60
2023-04-08T20:54:18.583Z,57.88
2023-04-08T20:59:22.110Z,50.13
2023-04-08T21:04:27.132Z,41.75
2023-04-08T21:09:32.822Z,44.63
2023-04-08T21:14:36.487Z,47.47
2023-04-08T21:19:38.614Z,41.28
2023-04-08T21:24:40.883Z,36.60
2023-04-08T21:29:44.412Z,43.55
2023-04-08T21:34:46.657Z,45.30
2023-04-08T21:39:48.923Z,50.65
2023-04-08T21:44:52.540Z,49.85
2023-04-08T21:49:54.736Z,56.03
2023-04-08T21:54:57.095Z,53.00
2023-04-08T22:00:00.692Z,50.15
2023-04-08T22:05:02.948Z,45.03
2023-04-08T22:10:05.918Z,60.38
2023-04-08T22:15:12.266Z,50.60
2023-04-08T22:20:14.416Z,54.43
2023-04-08T22:25:16.690Z,55.05
2023-04-08T22:30:20.298Z,64.97
2023-04-08T22:35:22.462Z,64.18
2023-04-08T22:40:24.644Z,59.83
2023-04-08T22:45:28.185Z,53.22
2023-04-08T22:50:30.320Z,60.75
2023-04-08T22:55:32.558Z,59.58
2023-04-08T23:00:36.083Z,60.50
2023-04-08T23:05:38.217Z,58.30
2023-04-08T23:10:40.364Z,56.42
2023-04-08T23:15:43.966Z,62.58
2023-04-08T23:20:51.364Z,47.60
2023-04-08T23:25:55.512Z,47.17
2023-04-08T23:31:03.451Z,49.05
2023-04-08T23:36:07.733Z,46.90
2023-04-08T23:41:09.913Z,48.42
2023-04-08T23:46:13.550Z,49.53
2023-04-08T23:51:15.785Z,47.03
2023-04-08T23:56:18.205Z,44.45
